Time;durP1;ratioP1;P1;durP2;ratioP2;P2;SDS_P1;SDS_P2;PMS_P1;PMS_P2;Temp;Humidity;BMP_temperature;BMP_pressure;BME280_temperature;BME280_humidity;BME280_pressure;Samples;Min_cycle;Max_cycle;Signal;HPM_P1;HPM_P2
2023/12/20 00:02:24;;;;;;;2.90;2.40;;;6.60;29.60;;;;;;5071904;28;20304;-86
2023/12/20 00:04:51;;;;;;;3.00;2.30;;;6.60;30.30;;;;;;5068804;28;20228;-86
2023/12/20 00:07:18;;;;;;;3.20;2.40;;;6.60;31.00;;;;;;5070637;28;20201;-86
2023/12/20 00:09:44;;;;;;;2.97;2.57;;;6.60;31.10;;;;;;5061782;28;20198;-86
2023/12/20 00:12:13;;;;;;;2.77;2.33;;;6.70;31.30;;;;;;5071314;28;20189;-86
2023/12/20 00:14:39;;;;;;;3.17;2.60;;;6.70;30.90;;;;;;5069032;28;20201;-86
2023/12/20 00:17:07;;;;;;;3.23;2.40;;;6.60;31.30;;;;;;5064968;28;20196;-86
2023/12/20 00:19:34;;;;;;;3.78;2.50;;;6.50;31.40;;;;;;5068664;28;20578;-87
2023/12/20 00:22:01;;;;;;;5.17;2.53;;;6.60;31.20;;;;;;5071035;28;20212;-86
2023/12/20 00:24:28;;;;;;;2.90;2.60;;;6.70;31.30;;;;;;5068118;28;20320;-86
2023/12/20 00:26:55;;;;;;;3.05;2.28;;;6.60;32.10;;;;;;5069012;28;20193;-86
2023/12/20 00:29:23;;;;;;;4.85;2.47;;;6.60;32.90;;;;;;5061380;28;20215;-87
2023/12/20 00:31:50;;;;;;;2.30;2.10;;;6.60;33.20;;;;;;5069034;28;20202;-87
2023/12/20 00:34:17;;;;;;;3.67;2.42;;;6.60;32.90;;;;;;5054246;28;20197;-87
2023/12/20 00:36:44;;;;;;;3.13;2.08;;;6.70;33.50;;;;;;5066936;28;20202;-86
2023/12/20 00:39:11;;;;;;;3.00;2.10;;;6.70;32.50;;;;;;5071520;28;20197;-86
2023/12/20 00:41:38;;;;;;;2.50;2.10;;;6.70;31.30;;;;;;5071843;28;20197;-87
2023/12/20 00:44:05;;;;;;;3.20;2.35;;;6.70;30.90;;;;;;5076885;28;20688;-86
2023/12/20 00:46:34;;;;;;;2.63;2.20;;;6.80;29.30;;;;;;5074772;28;20201;-86
2023/12/20 00:49:00;;;;;;;2.58;1.90;;;6.90;28.90;;;;;;5069250;28;20203;-86
2023/12/20 00:51:27;;;;;;;2.20;2.00;;;7.00;27.70;;;;;;5067349;28;20197;-87
2023/12/20 00:53:54;;;;;;;5.60;2.10;;;7.10;27.10;;;;;;5065302;28;20205;-86
2023/12/20 00:56:21;;;;;;;2.75;1.95;;;7.10;26.10;;;;;;5069274;28;20274;-87
2023/12/20 00:58:48;;;;;;;2.15;1.95;;;7.10;25.40;;;;;;5073273;28;20465;-86
2023/12/20 01:01:16;;;;;;;2.15;1.77;;;7.20;23.10;;;;;;5068791;28;20201;-86
2023/12/20 01:03:44;;;;;;;2.10;1.70;;;7.40;24.00;;;;;;5053628;28;20225;-86
2023/12/20 01:06:11;;;;;;;3.70;1.85;;;7.30;23.20;;;;;;5070510;28;20204;-87
2023/12/20 01:08:38;;;;;;;2.03;1.60;;;7.30;23.10;;;;;;5053046;28;20197;-86
2023/12/20 01:11:05;;;;;;;2.03;1.90;;;7.30;23.10;;;;;;5063069;28;20201;-86
2023/12/20 01:13:32;;;;;;;2.15;1.77;;;7.30;23.10;;;;;;5067194;28;20205;-86
2023/12/20 01:15:59;;;;;;;2.10;1.67;;;7.30;23.40;;;;;;5070285;28;20201;-86
2023/12/20 01:18:26;;;;;;;1.92;1.70;;;7.40;24.00;;;;;;5068172;28;20193;-86
2023/12/20 01:20:54;;;;;;;2.35;1.70;;;7.30;24.20;;;;;;5070252;28;20193;-86
2023/12/20 01:23:21;;;;;;;2.95;2.28;;;7.40;23.90;;;;;;5049942;28;20221;-87
2023/12/20 01:25:48;;;;;;;3.67;1.88;;;7.40;24.40;;;;;;5068423;28;20205;-86
2023/12/20 01:28:15;;;;;;;2.05;1.55;;;7.30;25.30;;;;;;5064640;28;20205;-86
2023/12/20 01:30:42;;;;;;;2.03;1.83;;;7.30;25.50;;;;;;5069802;28;20197;-86
2023/12/20 01:33:09;;;;;;;2.78;1.90;;;7.30;26.30;;;;;;5071205;28;20205;-86
2023/12/20 01:35:37;;;;;;;1.60;1.50;;;7.20;27.00;;;;;;5050683;28;20660;-86
2023/12/20 01:38:05;;;;;;;2.17;1.95;;;7.30;27.40;;;;;;5051364;28;20216;-87
2023/12/20 01:40:32;;;;;;;1.73;1.63;;;7.30;27.90;;;;;;5071140;28;20298;-86
2023/12/20 01:43:00;;;;;;;1.95;1.60;;;7.30;28.10;;;;;;5071991;28;20208;-86
2023/12/20 01:45:27;;;;;;;2.05;1.77;;;7.30;27.80;;;;;;5073380;28;20563;-86
2023/12/20 01:47:54;;;;;;;2.17;1.85;;;7.30;28.40;;;;;;5056802;28;20554;-86
2023/12/20 01:50:22;;;;;;;1.70;1.60;;;7.30;28.00;;;;;;5052925;28;20608;-86
2023/12/20 01:52:51;;;;;;;1.65;1.50;;;7.30;27.90;;;;;;5072845;28;20201;-86
2023/12/20 01:55:21;;;;;;;2.05;1.55;;;7.30;28.30;;;;;;5063447;28;20288;-86
2023/12/20 01:57:48;;;;;;;1.98;1.73;;;7.20;28.70;;;;;;5061577;28;20639;-86
2023/12/20 02:00:16;;;;;;;1.50;1.40;;;7.20;28.30;;;;;;5064578;28;20550;-86
2023/12/20 02:02:45;;;;;;;2.20;1.55;;;7.30;27.30;;;;;;5070190;28;20193;-86
2023/12/20 02:05:12;;;;;;;1.50;1.40;;;7.40;28.30;;;;;;5067653;28;20226;-86
2023/12/20 02:07:39;;;;;;;1.80;1.60;;;7.40;27.90;;;;;;5053698;28;20209;-86
2023/12/20 02:10:07;;;;;;;1.40;1.30;;;7.40;27.80;;;;;;5070228;28;20205;-86
2023/12/20 02:12:36;;;;;;;1.40;1.30;;;7.40;28.00;;;;;;5056215;28;20201;-86
2023/12/20 02:15:03;;;;;;;1.60;1.50;;;7.40;27.80;;;;;;5057951;28;20705;-86
2023/12/20 02:17:31;;;;;;;2.08;1.50;;;7.40;27.80;;;;;;5071234;28;20201;-86
2023/12/20 02:19:57;;;;;;;1.95;1.42;;;7.40;27.80;;;;;;5068474;28;20201;-86
2023/12/20 02:22:26;;;;;;;1.40;1.30;;;7.30;28.30;;;;;;5053297;28;20208;-86
2023/12/20 02:24:52;;;;;;;1.33;1.20;;;7.40;28.70;;;;;;5073485;28;20247;-86
2023/12/20 02:27:21;;;;;;;1.35;1.10;;;7.40;28.90;;;;;;5048916;28;20202;-86
2023/12/20 02:29:48;;;;;;;1.30;1.20;;;7.30;28.60;;;;;;5064785;28;20205;-86
2023/12/20 02:32:16;;;;;;;2.72;1.30;;;7.40;28.30;;;;;;5071794;28;20201;-86
2023/12/20 02:34:42;;;;;;;1.63;1.52;;;7.50;28.40;;;;;;5035595;28;20209;-86
2023/12/20 02:37:09;;;;;;;1.30;1.20;;;7.60;28.50;;;;;;5073040;28;20204;-86
2023/12/20 02:39:37;;;;;;;1.20;1.10;;;7.60;28.00;;;;;;5074810;28;20198;-86
2023/12/20 02:42:05;;;;;;;1.05;1.00;;;7.70;27.80;;;;;;5071036;28;20205;-87
2023/12/20 02:44:31;;;;;;;1.45;1.35;;;7.60;28.60;;;;;;5064924;28;20231;-86
2023/12/20 02:46:58;;;;;;;1.20;1.10;;;7.70;29.00;;;;;;5072000;28;20202;-86
2023/12/20 02:49:25;;;;;;;1.10;1.00;;;7.70;29.10;;;;;;5072230;28;20216;-86
2023/12/20 02:51:52;;;;;;;1.35;1.25;;;7.70;29.10;;;;;;5049009;28;20201;-86
2023/12/20 02:54:19;;;;;;;2.55;0.90;;;7.70;29.30;;;;;;5070708;28;20275;-86
2023/12/20 02:56:48;;;;;;;1.25;1.15;;;7.70;29.80;;;;;;5074620;28;20645;-86
2023/12/20 02:59:14;;;;;;;1.13;1.02;;;7.70;29.80;;;;;;5072430;28;20224;-86
2023/12/20 03:01:43;;;;;;;1.10;1.00;;;7.70;29.50;;;;;;5072538;28;20200;-86
2023/12/20 03:04:10;;;;;;;1.15;1.05;;;7.70;29.60;;;;;;5072552;28;20246;-86
2023/12/20 03:06:37;;;;;;;1.88;1.20;;;7.70;30.00;;;;;;5071812;28;20606;-86
2023/12/20 03:09:04;;;;;;;1.20;1.10;;;7.70;30.80;;;;;;5071671;28;20203;-86
2023/12/20 03:11:31;;;;;;;1.20;1.10;;;7.60;31.40;;;;;;5072667;28;20209;-86
2023/12/20 03:13:59;;;;;;;1.40;1.30;;;7.60;31.80;;;;;;5070244;28;20209;-86
2023/12/20 03:16:26;;;;;;;1.15;1.00;;;7.50;33.60;;;;;;5071696;28;20297;-87
2023/12/20 03:18:53;;;;;;;1.30;1.17;;;7.60;33.90;;;;;;5067949;28;20247;-87
2023/12/20 03:21:20;;;;;;;1.20;1.10;;;7.50;35.30;;;;;;5075203;28;20669;-86
2023/12/20 03:23:47;;;;;;;1.40;1.30;;;7.60;35.80;;;;;;5071064;28;20198;-86
2023/12/20 03:26:14;;;;;;;1.40;1.20;;;7.60;36.40;;;;;;5053656;28;20197;-87
2023/12/20 03:28:41;;;;;;;1.20;1.10;;;7.60;37.60;;;;;;5068406;28;20206;-86
2023/12/20 03:31:10;;;;;;;1.00;1.00;;;7.60;40.90;;;;;;5066453;28;20190;-87
2023/12/20 03:33:37;;;;;;;0.82;0.82;;;7.60;43.30;;;;;;5038882;28;20197;-86
2023/12/20 03:36:04;;;;;;;1.52;1.25;;;7.70;44.70;;;;;;5054651;28;20201;-86
2023/12/20 03:38:31;;;;;;;0.80;0.80;;;7.60;46.40;;;;;;5070679;28;20205;-86
2023/12/20 03:40:58;;;;;;;1.65;0.98;;;7.70;49.40;;;;;;5070486;28;20201;-87
2023/12/20 03:43:25;;;;;;;1.35;1.23;;;7.70;51.80;;;;;;5067185;28;20197;-86
2023/12/20 03:45:52;;;;;;;1.08;1.00;;;7.60;51.80;;;;;;5053193;28;20217;-86
2023/12/20 03:48:20;;;;;;;0.90;0.90;;;7.70;53.50;;;;;;5051901;28;20205;-86
2023/12/20 03:50:47;;;;;;;1.45;1.15;;;7.80;53.80;;;;;;5070360;28;20204;-87
2023/12/20 03:53:15;;;;;;;1.52;1.20;;;7.70;57.10;;;;;;5070054;28;20211;-87
2023/12/20 03:55:42;;;;;;;1.13;1.02;;;7.70;59.90;;;;;;5070746;28;20201;-87
2023/12/20 03:58:09;;;;;;;2.67;1.13;;;7.70;63.80;;;;;;5048885;28;20239;-86
2023/12/20 04:00:36;;;;;;;0.90;0.90;;;7.60;66.70;;;;;;5069246;28;20201;-86
2023/12/20 04:03:03;;;;;;;1.08;1.00;;;7.70;72.60;;;;;;5068202;28;20296;-86
2023/12/20 04:05:31;;;;;;;1.38;1.00;;;7.60;75.10;;;;;;5069322;28;20251;-86
2023/12/20 04:07:58;;;;;;;1.77;1.00;;;7.60;78.30;;;;;;5070727;28;20211;-86
2023/12/20 04:10:25;;;;;;;0.98;0.88;;;7.60;79.90;;;;;;5072294;28;20315;-86
2023/12/20 04:12:52;;;;;;;1.20;1.10;;;7.60;82.60;;;;;;5071762;28;20564;-86
2023/12/20 04:15:18;;;;;;;0.85;0.85;;;7.60;85.60;;;;;;5070829;28;20193;-87
2023/12/20 04:17:45;;;;;;;1.73;0.82;;;7.50;88.70;;;;;;5064585;28;20691;-86
2023/12/20 04:20:12;;;;;;;1.33;0.88;;;7.50;90.10;;;;;;5071183;28;20211;-87
2023/12/20 04:22:40;;;;;;;0.98;0.98;;;7.40;90.90;;;;;;5063541;28;20209;-86
2023/12/20 04:25:08;;;;;;;1.10;0.93;;;7.30;91.60;;;;;;5070830;28;20240;-86
2023/12/20 04:27:34;;;;;;;0.95;0.95;;;7.30;91.90;;;;;;5070941;28;20201;-86
2023/12/20 04:30:01;;;;;;;1.70;1.10;;;7.30;92.20;;;;;;5070597;28;20548;-86
2023/12/20 04:32:28;;;;;;;1.77;1.02;;;7.30;92.40;;;;;;5071585;28;20203;-86
2023/12/20 04:34:55;;;;;;;1.35;1.08;;;7.30;92.90;;;;;;5030927;28;20209;-86
2023/12/20 04:37:22;;;;;;;1.13;1.05;;;7.20;93.10;;;;;;5069009;28;20200;-85
2023/12/20 04:39:50;;;;;;;1.98;1.42;;;7.10;93.50;;;;;;5069482;28;20224;-86
2023/12/20 04:42:17;;;;;;;2.50;1.10;;;7.10;93.60;;;;;;5071309;28;20197;-86
2023/12/20 04:44:44;;;;;;;1.55;1.45;;;7.10;93.90;;;;;;5071778;28;20224;-86
2023/12/20 04:47:11;;;;;;;1.20;1.00;;;7.10;94.10;;;;;;5053261;28;20263;-86
2023/12/20 04:49:38;;;;;;;3.45;1.17;;;7.00;94.20;;;;;;5067423;28;20222;-86
2023/12/20 04:52:05;;;;;;;1.35;1.17;;;7.00;94.50;;;;;;5067751;28;20661;-86
2023/12/20 04:54:32;;;;;;;1.40;1.30;;;7.00;94.80;;;;;;5050036;28;20193;-86
2023/12/20 04:57:01;;;;;;;1.40;1.30;;;7.00;95.00;;;;;;5063079;28;20680;-86
2023/12/20 04:59:27;;;;;;;1.27;1.17;;;7.00;95.50;;;;;;5070538;28;20204;-86
2023/12/20 05:01:54;;;;;;;1.40;1.30;;;7.00;95.50;;;;;;5060928;28;20198;-86
2023/12/20 05:04:21;;;;;;;1.50;1.40;;;7.00;95.50;;;;;;5032235;28;20221;-86
2023/12/20 05:06:49;;;;;;;1.80;1.65;;;7.00;95.50;;;;;;5069194;28;20197;-86
2023/12/20 05:09:16;;;;;;;2.10;1.60;;;6.90;96.40;;;;;;5037347;28;20197;-86
2023/12/20 05:11:43;;;;;;;1.83;1.55;;;6.90;96.80;;;;;;5066957;28;20207;-86
2023/12/20 05:14:11;;;;;;;1.87;1.77;;;6.80;97.30;;;;;;5065778;28;20915;-86
2023/12/20 05:16:38;;;;;;;1.67;1.57;;;6.70;98.00;;;;;;5069462;28;20201;-86
2023/12/20 05:19:06;;;;;;;1.85;1.70;;;6.80;98.40;;;;;;5061686;28;20292;-86
2023/12/20 05:21:33;;;;;;;2.08;1.85;;;6.60;98.80;;;;;;5072671;28;20207;-86
2023/12/20 05:24:00;;;;;;;2.13;1.80;;;6.60;99.40;;;;;;5069314;28;20209;-87
2023/12/20 05:26:29;;;;;;;2.13;1.70;;;6.50;99.90;;;;;;5043352;28;20306;-86
2023/12/20 05:28:55;;;;;;;2.00;1.70;;;6.40;99.90;;;;;;5069316;28;20201;-86
2023/12/20 05:31:24;;;;;;;2.57;1.70;;;6.40;99.90;;;;;;5048909;28;20241;-86
2023/12/20 05:33:50;;;;;;;2.10;1.77;;;6.30;99.90;;;;;;5069790;28;20190;-86
2023/12/20 05:36:17;;;;;;;2.00;1.80;;;6.30;99.90;;;;;;5069183;28;20212;-86
2023/12/20 05:38:44;;;;;;;2.03;1.75;;;6.30;99.90;;;;;;5068655;28;20200;-86
2023/12/20 05:41:11;;;;;;;3.10;1.87;;;6.30;99.90;;;;;;5064793;28;20197;-86
2023/12/20 05:43:38;;;;;;;2.00;1.80;;;6.20;99.90;;;;;;5064577;28;20201;-86
2023/12/20 05:46:04;;;;;;;2.10;1.70;;;6.10;99.90;;;;;;5068431;28;20227;-86
2023/12/20 05:48:33;;;;;;;2.47;1.90;;;6.20;99.90;;;;;;5067459;28;20659;-85
2023/12/20 05:50:59;;;;;;;5.10;2.10;;;6.00;99.90;;;;;;5062222;28;20197;-86
2023/12/20 05:53:26;;;;;;;2.30;2.10;;;6.00;99.90;;;;;;5067482;28;20204;-87
2023/12/20 05:55:53;;;;;;;1.80;1.70;;;6.00;99.90;;;;;;5069551;28;20196;-86
2023/12/20 05:58:20;;;;;;;2.00;1.60;;;6.00;99.90;;;;;;5065326;28;20213;-84
2023/12/20 06:00:48;;;;;;;2.07;1.70;;;5.90;99.90;;;;;;5068079;28;20204;-86
2023/12/20 06:03:15;;;;;;;3.87;1.70;;;5.90;99.90;;;;;;5069492;28;20217;-84
2023/12/20 06:05:43;;;;;;;2.57;1.80;;;5.90;99.90;;;;;;5067320;28;20723;-86
2023/12/20 06:08:10;;;;;;;1.80;1.60;;;5.80;99.90;;;;;;5075874;28;20201;-85
2023/12/20 06:10:37;;;;;;;2.03;1.77;;;5.80;99.90;;;;;;5062858;28;20209;-87
2023/12/20 06:13:04;;;;;;;3.37;1.73;;;5.80;99.90;;;;;;5066935;28;20220;-84
2023/12/20 06:15:31;;;;;;;5.00;1.70;;;5.80;99.90;;;;;;5059994;28;20221;-85
2023/12/20 06:17:58;;;;;;;2.20;2.00;;;5.80;99.90;;;;;;5035220;28;20602;-86
2023/12/20 06:20:25;;;;;;;2.60;2.13;;;5.80;99.90;;;;;;5067979;28;20238;-86
2023/12/20 06:22:53;;;;;;;2.90;2.10;;;5.70;99.90;;;;;;5065393;28;20711;-86
2023/12/20 06:25:20;;;;;;;4.80;1.73;;;5.70;99.90;;;;;;5049666;28;20218;-86
2023/12/20 06:27:47;;;;;;;3.97;1.83;;;5.60;99.90;;;;;;5071169;28;20203;-86
2023/12/20 06:30:14;;;;;;;4.10;1.80;;;5.60;99.90;;;;;;5070044;28;20204;-86
2023/12/20 06:32:42;;;;;;;2.17;1.90;;;5.50;99.90;;;;;;5064930;28;20561;-87
2023/12/20 06:35:10;;;;;;;2.53;1.90;;;5.50;99.90;;;;;;5070242;28;20205;-84
2023/12/20 06:37:37;;;;;;;2.37;1.93;;;5.50;99.90;;;;;;5073453;28;20197;-86
2023/12/20 06:40:07;;;;;;;1.90;1.80;;;5.50;99.90;;;;;;5071512;28;20714;-85
2023/12/20 06:42:34;;;;;;;3.53;2.10;;;5.40;99.90;;;;;;5068581;28;20284;-84
2023/12/20 06:45:00;;;;;;;2.50;1.87;;;5.30;99.90;;;;;;5073120;28;20225;-80
2023/12/20 06:47:27;;;;;;;2.43;2.00;;;5.30;99.90;;;;;;5066327;28;20213;-87
2023/12/20 06:49:54;;;;;;;2.13;1.93;;;5.30;99.90;;;;;;5069647;28;20193;-84
2023/12/20 06:52:21;;;;;;;2.27;1.80;;;5.30;99.90;;;;;;5064835;28;20197;-84
2023/12/20 06:54:47;;;;;;;3.00;1.90;;;5.30;99.90;;;;;;5061759;28;20215;-85
2023/12/20 06:57:21;;;;;;;2.37;1.70;;;5.20;99.90;;;;;;5069930;28;20205;-85
2023/12/20 06:59:47;;;;;;;2.10;1.80;;;5.10;99.90;;;;;;5070157;28;20193;-85
2023/12/20 07:02:14;;;;;;;1.63;1.53;;;5.10;99.90;;;;;;5074081;28;20209;-84
2023/12/20 07:04:42;;;;;;;1.77;1.67;;;5.00;99.90;;;;;;5065768;28;20221;-85
2023/12/20 07:07:09;;;;;;;3.10;1.40;;;5.10;99.90;;;;;;5073404;28;20201;-85
2023/12/20 07:09:36;;;;;;;1.50;1.40;;;5.00;99.90;;;;;;5067978;28;20300;-84
2023/12/20 07:12:03;;;;;;;1.53;1.43;;;5.00;99.90;;;;;;5070761;28;20302;-85
2023/12/20 07:14:31;;;;;;;1.67;1.57;;;5.00;99.90;;;;;;5070407;28;20193;-83
2023/12/20 07:16:58;;;;;;;1.93;1.60;;;5.00;99.90;;;;;;5069028;28;20202;-84
2023/12/20 07:19:24;;;;;;;1.20;1.10;;;5.10;99.90;;;;;;5074945;28;20715;-83
2023/12/20 07:21:51;;;;;;;1.33;1.13;;;5.10;99.90;;;;;;5069570;28;20219;-84
2023/12/20 07:24:18;;;;;;;1.90;1.20;;;5.00;99.90;;;;;;5064232;28;20284;-84
2023/12/20 07:26:45;;;;;;;1.30;1.20;;;5.00;99.90;;;;;;5071052;28;20224;-84
2023/12/20 07:29:12;;;;;;;1.70;1.43;;;5.10;99.90;;;;;;5066477;28;20216;-83
2023/12/20 07:31:40;;;;;;;1.60;1.50;;;5.00;99.90;;;;;;5071494;28;20204;-84
2023/12/20 07:34:07;;;;;;;1.40;1.30;;;5.10;99.90;;;;;;5068988;28;20201;-84
2023/12/20 07:36:34;;;;;;;1.90;1.53;;;5.10;99.90;;;;;;5066009;28;20209;-82
2023/12/20 07:39:00;;;;;;;4.10;2.47;;;5.10;99.90;;;;;;5072517;28;20209;-85
2023/12/20 07:41:27;;;;;;;10.40;6.67;;;5.20;99.90;;;;;;5067980;28;20209;-82
2023/12/20 07:43:54;;;;;;;2.07;1.43;;;5.20;99.90;;;;;;5068480;28;20193;-84
2023/12/20 07:46:23;;;;;;;8.40;5.90;;;5.20;99.90;;;;;;5065984;28;20229;-84
2023/12/20 07:48:52;;;;;;;3.27;2.37;;;5.20;99.90;;;;;;5065489;28;20198;-83
2023/12/20 07:51:21;;;;;;;14.07;8.30;;;5.20;99.90;;;;;;5067740;28;20198;-85
2023/12/20 07:53:47;;;;;;;5.80;3.83;;;5.30;99.90;;;;;;5063552;28;20653;-84
2023/12/20 07:56:15;;;;;;;8.90;5.40;;;5.40;99.90;;;;;;5067482;28;20229;-84
2023/12/20 07:58:42;;;;;;;14.57;8.93;;;5.30;99.90;;;;;;5069194;28;20266;-86
2023/12/20 08:01:09;;;;;;;3.60;2.47;;;5.40;99.90;;;;;;5065418;28;20189;-84
2023/12/20 08:03:37;;;;;;;5.13;3.37;;;5.40;99.90;;;;;;5066318;28;20720;-86
2023/12/20 08:06:06;;;;;;;2.53;2.07;;;5.40;99.90;;;;;;5062568;28;20227;-84
2023/12/20 08:08:32;;;;;;;3.73;2.93;;;5.30;99.90;;;;;;5071196;28;20206;-83
2023/12/20 08:11:00;;;;;;;1.40;1.30;;;5.40;99.90;;;;;;5061847;28;20293;-85
2023/12/20 08:13:27;;;;;;;5.23;3.00;;;5.40;99.90;;;;;;5065513;28;20201;-86
2023/12/20 08:15:55;;;;;;;4.43;3.30;;;5.40;99.90;;;;;;5066724;28;20201;-83
2023/12/20 08:18:22;;;;;;;2.70;1.80;;;5.50;99.90;;;;;;5068081;28;20276;-85
2023/12/20 08:20:49;;;;;;;4.90;3.43;;;5.60;99.90;;;;;;5067542;28;20254;-86
2023/12/20 08:23:17;;;;;;;6.00;3.23;;;5.60;99.90;;;;;;5062753;28;20193;-86
2023/12/20 08:25:44;;;;;;;1.43;1.23;;;5.60;99.90;;;;;;5066315;28;20241;-85
2023/12/20 08:28:11;;;;;;;2.47;1.20;;;5.40;99.90;;;;;;5067119;28;20194;-83
2023/12/20 08:30:38;;;;;;;1.30;1.20;;;5.30;99.90;;;;;;5059386;28;20700;-83
2023/12/20 08:33:07;;;;;;;1.17;1.13;;;5.20;99.90;;;;;;5061886;28;20204;-85
2023/12/20 08:35:34;;;;;;;1.27;1.00;;;5.10;99.90;;;;;;5066905;28;20207;-85
2023/12/20 08:38:01;;;;;;;1.30;1.20;;;5.20;99.90;;;;;;5062369;28;20207;-85
2023/12/20 08:40:29;;;;;;;1.10;1.00;;;5.10;99.90;;;;;;5065064;28;20201;-84
2023/12/20 08:42:55;;;;;;;3.00;1.20;;;5.00;99.90;;;;;;5065980;28;20189;-85
2023/12/20 08:45:22;;;;;;;1.27;1.17;;;5.00;99.90;;;;;;5063884;28;20201;-85
2023/12/20 08:47:48;;;;;;;1.30;1.20;;;5.00;99.90;;;;;;5064621;28;20691;-86
2023/12/20 08:50:15;;;;;;;1.07;1.00;;;5.00;99.90;;;;;;5063071;28;20193;-85
2023/12/20 08:52:42;;;;;;;1.10;1.10;;;5.10;99.90;;;;;;5064956;28;20204;-86
2023/12/20 08:55:10;;;;;;;1.20;1.10;;;5.10;99.90;;;;;;5062973;28;20555;-85
2023/12/20 08:57:38;;;;;;;1.20;1.10;;;5.20;99.90;;;;;;5068414;28;20289;-83
2023/12/20 09:00:07;;;;;;;1.20;1.10;;;5.20;99.90;;;;;;5061607;28;20201;-84
2023/12/20 09:02:35;;;;;;;1.10;1.00;;;5.20;99.90;;;;;;5062698;28;20671;-84
2023/12/20 09:05:03;;;;;;;1.40;1.30;;;5.20;99.90;;;;;;5065696;28;20227;-84
2023/12/20 09:07:31;;;;;;;1.30;1.20;;;5.20;99.90;;;;;;5057946;28;20773;-84
2023/12/20 09:09:58;;;;;;;1.40;1.30;;;5.20;99.90;;;;;;5062494;28;20220;-83
2023/12/20 09:12:25;;;;;;;0.93;0.90;;;5.20;99.90;;;;;;5069870;28;20197;-83
2023/12/20 09:14:54;;;;;;;1.20;1.10;;;5.40;99.90;;;;;;5048962;28;20202;-83
2023/12/20 09:17:22;;;;;;;1.20;1.10;;;5.50;99.90;;;;;;5060104;28;20193;-83
2023/12/20 09:19:49;;;;;;;1.20;1.10;;;5.50;99.90;;;;;;5062579;28;20201;-83
2023/12/20 09:22:17;;;;;;;1.30;1.13;;;5.60;99.90;;;;;;5058801;28;20582;-83
2023/12/20 09:24:44;;;;;;;1.60;1.50;;;5.60;99.90;;;;;;5056378;28;20231;-86
2023/12/20 09:27:11;;;;;;;1.13;1.10;;;5.70;99.90;;;;;;5047128;28;20228;-84
2023/12/20 09:29:38;;;;;;;1.40;0.93;;;5.60;99.90;;;;;;5051064;28;20201;-83
2023/12/20 09:32:07;;;;;;;1.17;1.07;;;5.80;99.90;;;;;;5060128;28;20197;-86
2023/12/20 09:34:34;;;;;;;1.80;1.10;;;5.80;99.90;;;;;;5071678;28;20279;-84
2023/12/20 09:37:02;;;;;;;1.00;1.00;;;5.80;99.90;;;;;;5065214;28;20203;-84
2023/12/20 09:39:31;;;;;;;2.20;1.07;;;5.80;99.90;;;;;;5069030;28;20204;-87
2023/12/20 09:42:02;;;;;;;1.37;1.10;;;5.70;99.90;;;;;;5067878;28;20197;-86
2023/12/20 09:44:29;;;;;;;1.37;1.27;;;5.80;99.90;;;;;;5060797;28;20346;-84
2023/12/20 09:46:57;;;;;;;0.90;0.90;;;5.70;99.90;;;;;;5064172;28;20308;-84
2023/12/20 09:49:28;;;;;;;1.07;0.97;;;5.60;99.90;;;;;;5067406;28;20197;-84
2023/12/20 09:51:55;;;;;;;1.17;1.07;;;5.70;99.90;;;;;;5063450;28;20667;-84
2023/12/20 09:54:22;;;;;;;1.10;1.00;;;5.60;99.90;;;;;;5066327;28;20197;-84
2023/12/20 09:56:50;;;;;;;1.87;1.27;;;5.60;99.90;;;;;;5065346;28;20567;-85
2023/12/20 09:59:17;;;;;;;1.57;1.03;;;5.60;99.90;;;;;;5065762;28;20193;-84
2023/12/20 10:01:45;;;;;;;1.10;0.90;;;5.70;99.90;;;;;;5063201;28;20623;-85
2023/12/20 10:04:14;;;;;;;1.20;1.10;;;5.60;99.90;;;;;;5065659;28;20220;-85
2023/12/20 10:06:43;;;;;;;3.97;2.60;;;5.70;99.90;;;;;;5067487;28;20224;-86
2023/12/20 10:09:10;;;;;;;23.80;14.40;;;5.80;99.90;;;;;;5075611;28;20637;-85
2023/12/20 10:11:38;;;;;;;2.73;2.30;;;5.90;99.90;;;;;;5074659;28;20197;-83
2023/12/20 10:14:05;;;;;;;7.20;4.70;;;5.90;99.90;;;;;;5069327;28;20201;-85
2023/12/20 10:16:33;;;;;;;9.43;6.17;;;6.00;99.90;;;;;;5065476;28;20497;-85
2023/12/20 10:19:02;;;;;;;5.53;3.00;;;6.10;99.90;;;;;;5070577;28;20193;-85
2023/12/20 10:21:30;;;;;;;4.73;2.70;;;6.20;99.90;;;;;;5068299;28;20707;-85
2023/12/20 10:23:59;;;;;;;1.90;1.50;;;6.30;99.90;;;;;;5077745;28;20208;-85
2023/12/20 10:26:26;;;;;;;1.47;1.23;;;6.30;99.90;;;;;;5069793;28;20264;-85
2023/12/20 10:28:55;;;;;;;2.80;1.80;;;6.30;99.90;;;;;;5058836;28;20202;-85
2023/12/20 10:31:30;;;;;;;4.07;2.87;;;6.40;99.90;;;;;;5069461;28;20197;-86
2023/12/20 10:33:58;;;;;;;6.77;4.33;;;6.40;99.90;;;;;;5069228;28;20323;-85
2023/12/20 10:36:27;;;;;;;2.13;1.87;;;6.40;99.90;;;;;;5070399;28;20711;-85
2023/12/20 10:38:55;;;;;;;3.33;2.20;;;6.30;99.90;;;;;;5073077;28;20215;-85
2023/12/20 10:41:27;;;;;;;1.20;1.10;;;6.40;99.90;;;;;;5052391;28;20201;-85
2023/12/20 10:43:57;;;;;;;1.47;1.37;;;6.30;99.90;;;;;;5050818;28;20206;-86
2023/12/20 10:46:26;;;;;;;1.83;1.50;;;6.30;99.90;;;;;;5060404;28;20244;-85
2023/12/20 10:48:54;;;;;;;7.00;3.03;;;6.30;99.90;;;;;;5069177;28;20742;-87
2023/12/20 10:51:22;;;;;;;1.27;1.10;;;6.40;99.90;;;;;;5067305;28;20197;-85
2023/12/20 10:53:50;;;;;;;6.70;3.23;;;6.40;99.90;;;;;;5071634;28;20220;-86
2023/12/20 10:56:18;;;;;;;1.20;1.10;;;6.50;99.90;;;;;;5058239;28;20193;-85
2023/12/20 10:58:48;;;;;;;1.63;1.50;;;6.50;99.90;;;;;;5060487;28;20236;-85
2023/12/20 11:01:15;;;;;;;3.75;2.22;;;6.60;99.90;;;;;;5075509;28;20189;-85
2023/12/20 11:03:46;;;;;;;1.23;1.13;;;6.60;99.90;;;;;;5073366;28;20202;-84
2023/12/20 11:06:29;;;;;;;1.20;1.10;;;6.50;99.90;;;;;;5078196;28;20239;-85
2023/12/20 11:09:09;;;;;;;1.50;1.40;;;6.50;99.90;;;;;;5073293;28;20285;-85
2023/12/20 11:11:43;;;;;;;1.38;1.25;;;6.50;99.90;;;;;;5077025;28;20208;-85
2023/12/20 11:14:18;;;;;;;1.38;1.27;;;6.50;99.90;;;;;;5068395;28;20213;-85
2023/12/20 11:16:45;;;;;;;1.85;1.52;;;6.40;99.90;;;;;;5072537;28;20204;-85
2023/12/20 11:19:14;;;;;;;2.85;2.05;;;6.50;99.90;;;;;;5067275;28;20193;-85
2023/12/20 11:21:41;;;;;;;1.20;1.10;;;6.40;99.90;;;;;;5068000;28;20201;-85
2023/12/20 11:24:08;;;;;;;1.60;1.30;;;6.50;99.90;;;;;;5067040;28;20912;-85
2023/12/20 11:26:35;;;;;;;2.20;1.70;;;6.30;99.90;;;;;;5048973;28;20218;-85
2023/12/20 11:29:32;;;;;;;2.00;1.60;;;6.30;99.90;;;;;;5063257;28;20264;-86
2023/12/20 11:32:01;;;;;;;2.33;1.80;;;6.20;99.90;;;;;;5061571;28;20212;-85
2023/12/20 11:34:28;;;;;;;2.40;1.83;;;6.20;99.90;;;;;;5070688;28;20193;-86
2023/12/20 11:36:59;;;;;;;2.05;1.38;;;6.30;99.90;;;;;;5058687;28;20233;-85
2023/12/20 11:39:27;;;;;;;2.87;1.60;;;6.40;99.90;;;;;;5066203;28;20193;-87
2023/12/20 11:41:57;;;;;;;1.55;1.45;;;6.40;99.90;;;;;;5074060;28;20208;-85
2023/12/20 11:44:24;;;;;;;2.55;1.52;;;6.40;99.90;;;;;;5068971;28;20247;-85
2023/12/20 11:46:53;;;;;;;1.80;1.70;;;6.50;99.90;;;;;;5069715;28;20255;-85
2023/12/20 11:49:24;;;;;;;2.00;1.80;;;6.50;99.90;;;;;;5058436;28;20287;-85
2023/12/20 11:51:51;;;;;;;3.53;1.90;;;6.60;99.90;;;;;;5063491;28;20194;-85
2023/12/20 11:54:18;;;;;;;1.73;1.60;;;6.60;99.90;;;;;;5066793;28;20199;-86
2023/12/20 11:56:45;;;;;;;2.17;1.70;;;6.70;99.90;;;;;;5069558;28;20216;-85
2023/12/20 11:59:12;;;;;;;3.00;1.60;;;6.80;99.90;;;;;;5067773;28;20220;-85
2023/12/20 12:01:39;;;;;;;2.35;1.80;;;6.70;99.90;;;;;;5069280;28;20201;-85
2023/12/20 12:04:08;;;;;;;2.88;2.00;;;6.80;99.90;;;;;;5050286;28;20671;-86
2023/12/20 12:06:35;;;;;;;2.10;1.90;;;6.90;99.90;;;;;;5062201;28;20641;-86
2023/12/20 12:09:03;;;;;;;2.38;1.75;;;7.00;99.90;;;;;;5055311;28;20265;-85
2023/12/20 12:11:31;;;;;;;1.50;1.40;;;7.00;99.90;;;;;;5070320;28;20209;-85
2023/12/20 12:13:58;;;;;;;2.15;1.95;;;6.90;99.90;;;;;;5069273;28;20196;-85
2023/12/20 12:16:25;;;;;;;1.60;1.50;;;6.90;99.90;;;;;;5069383;28;20224;-85
2023/12/20 12:18:59;;;;;;;3.13;1.50;;;7.00;99.50;;;;;;5044135;28;20202;-85
2023/12/20 12:21:27;;;;;;;1.50;1.40;;;6.80;99.70;;;;;;5068227;28;20296;-86
2023/12/20 12:23:54;;;;;;;1.70;1.52;;;6.70;99.90;;;;;;5065081;28;20201;-85
2023/12/20 12:26:21;;;;;;;1.33;1.23;;;6.70;99.70;;;;;;5068264;28;20581;-91
2023/12/20 12:28:47;;;;;;;1.58;1.27;;;6.70;99.20;;;;;;5069098;28;20228;-86
2023/12/20 12:31:16;;;;;;;1.27;1.17;;;6.60;99.50;;;;;;5059736;28;20711;-86
2023/12/20 12:33:44;;;;;;;1.80;1.20;;;6.50;99.70;;;;;;5060994;28;20660;-86
2023/12/20 12:36:11;;;;;;;2.30;1.50;;;6.60;99.20;;;;;;5045953;28;20206;-87
2023/12/20 12:38:39;;;;;;;1.90;1.63;;;6.50;99.50;;;;;;5061647;28;20205;-87
2023/12/20 12:41:07;;;;;;;1.67;1.58;;;6.50;99.90;;;;;;5066681;28;20560;-87
2023/12/20 12:43:34;;;;;;;1.93;1.70;;;6.40;99.90;;;;;;5067553;28;20197;-86
2023/12/20 12:46:02;;;;;;;1.60;1.50;;;6.40;99.90;;;;;;5063182;28;20204;-87
2023/12/20 12:48:29;;;;;;;1.60;1.50;;;6.40;99.90;;;;;;5063817;28;20252;-86
2023/12/20 12:50:58;;;;;;;1.87;1.77;;;6.30;99.90;;;;;;5064199;28;20193;-86
2023/12/20 12:53:26;;;;;;;1.80;1.67;;;6.30;99.90;;;;;;5058578;28;20210;-86
2023/12/20 12:55:55;;;;;;;1.70;1.33;;;6.30;99.90;;;;;;5046660;28;20280;-87
2023/12/20 12:58:22;;;;;;;1.87;1.40;;;6.20;99.90;;;;;;5067546;28;20212;-86
2023/12/20 13:00:49;;;;;;;2.93;1.53;;;6.20;99.90;;;;;;5048179;28;20193;-87